sensor_id;sensor_type;location;lat;lon;timestamp;P1;durP1;ratioP1;P2;durP2;ratioP2
20814;SDS011;10568;48.176;16.316;2022-10-17T00:01:47;25.57;;;15.43;;
20814;SDS011;10568;48.176;16.316;2022-10-17T00:04:13;25.50;;;14.87;;
20814;SDS011;10568;48.176;16.316;2022-10-17T00:06:39;25.20;;;14.80;;
20814;SDS011;10568;48.176;16.316;2022-10-17T00:09:05;26.27;;;16.60;;
20814;SDS011;10568;48.176;16.316;2022-10-17T00:11:31;22.53;;;14.30;;
20814;SDS011;10568;48.176;16.316;2022-10-17T00:13:57;25.87;;;15.13;;
20814;SDS011;10568;48.176;16.316;2022-10-17T00:16:27;25.07;;;15.27;;
20814;SDS011;10568;48.176;16.316;2022-10-17T00:18:56;24.63;;;16.27;;
20814;SDS011;10568;48.176;16.316;2022-10-17T00:21:23;25.50;;;16.03;;
20814;SDS011;10568;48.176;16.316;2022-10-17T00:23:50;25.67;;;15.87;;
20814;SDS011;10568;48.176;16.316;2022-10-17T00:26:17;24.17;;;14.40;;
20814;SDS011;10568;48.176;16.316;2022-10-17T00:28:45;27.60;;;15.97;;
20814;SDS011;10568;48.176;16.316;2022-10-17T00:31:12;27.80;;;15.40;;
20814;SDS011;10568;48.176;16.316;2022-10-17T00:33:40;23.17;;;15.40;;
20814;SDS011;10568;48.176;16.316;2022-10-17T00:38:37;27.43;;;16.67;;
20814;SDS011;10568;48.176;16.316;2022-10-17T00:41:07;24.73;;;14.10;;
20814;SDS011;10568;48.176;16.316;2022-10-17T00:46:28;25.70;;;16.13;;
20814;SDS011;10568;48.176;16.316;2022-10-17T00:48:57;28.83;;;16.10;;
20814;SDS011;10568;48.176;16.316;2022-10-17T00:51:44;24.47;;;14.63;;
20814;SDS011;10568;48.176;16.316;2022-10-17T00:54:15;23.00;;;14.67;;
20814;SDS011;10568;48.176;16.316;2022-10-17T00:56:43;24.33;;;15.20;;
20814;SDS011;10568;48.176;16.316;2022-10-17T00:59:11;26.27;;;16.53;;
20814;SDS011;10568;48.176;16.316;2022-10-17T01:01:39;26.33;;;16.07;;
20814;SDS011;10568;48.176;16.316;2022-10-17T01:04:06;25.77;;;16.93;;
20814;SDS011;10568;48.176;16.316;2022-10-17T01:06:33;26.17;;;14.73;;
20814;SDS011;10568;48.176;16.316;2022-10-17T01:08:59;27.47;;;16.23;;
20814;SDS011;10568;48.176;16.316;2022-10-17T01:11:45;22.93;;;14.30;;
20814;SDS011;10568;48.176;16.316;2022-10-17T01:21:10;26.37;;;15.40;;
20814;SDS011;10568;48.176;16.316;2022-10-17T01:32:39;24.67;;;15.03;;
20814;SDS011;10568;48.176;16.316;2022-10-17T01:35:31;25.40;;;14.33;;
20814;SDS011;10568;48.176;16.316;2022-10-17T01:40:49;25.77;;;16.23;;
20814;SDS011;10568;48.176;16.316;2022-10-17T01:43:39;25.50;;;14.53;;
20814;SDS011;10568;48.176;16.316;2022-10-17T01:46:11;23.93;;;14.63;;
20814;SDS011;10568;48.176;16.316;2022-10-17T01:48:43;23.40;;;13.83;;
20814;SDS011;10568;48.176;16.316;2022-10-17T01:53:52;24.87;;;15.77;;
20814;SDS011;10568;48.176;16.316;2022-10-17T01:56:23;20.00;;;12.90;;
20814;SDS011;10568;48.176;16.316;2022-10-17T01:58:52;23.47;;;14.87;;
20814;SDS011;10568;48.176;16.316;2022-10-17T02:01:23;24.27;;;14.40;;
20814;SDS011;10568;48.176;16.316;2022-10-17T02:03:50;23.03;;;14.10;;
20814;SDS011;10568;48.176;16.316;2022-10-17T02:06:17;23.53;;;14.27;;
20814;SDS011;10568;48.176;16.316;2022-10-17T02:08:47;23.23;;;14.50;;
20814;SDS011;10568;48.176;16.316;2022-10-17T02:11:24;22.10;;;14.67;;
20814;SDS011;10568;48.176;16.316;2022-10-17T02:22:12;25.27;;;16.00;;
20814;SDS011;10568;48.176;16.316;2022-10-17T02:24:47;25.43;;;14.80;;
20814;SDS011;10568;48.176;16.316;2022-10-17T02:30:02;25.70;;;14.77;;
20814;SDS011;10568;48.176;16.316;2022-10-17T02:35:09;25.60;;;15.33;;
20814;SDS011;10568;48.176;16.316;2022-10-17T02:37:38;25.63;;;15.30;;
20814;SDS011;10568;48.176;16.316;2022-10-17T02:40:08;24.63;;;13.80;;
20814;SDS011;10568;48.176;16.316;2022-10-17T02:42:36;26.57;;;15.23;;
20814;SDS011;10568;48.176;16.316;2022-10-17T02:45:06;25.07;;;14.50;;
20814;SDS011;10568;48.176;16.316;2022-10-17T02:47:40;24.33;;;13.43;;
20814;SDS011;10568;48.176;16.316;2022-10-17T02:50:13;26.27;;;15.57;;
20814;SDS011;10568;48.176;16.316;2022-10-17T02:52:43;25.47;;;16.00;;
20814;SDS011;10568;48.176;16.316;2022-10-17T02:55:17;20.80;;;13.30;;
20814;SDS011;10568;48.176;16.316;2022-10-17T02:57:55;26.63;;;15.40;;
20814;SDS011;10568;48.176;16.316;2022-10-17T03:00:24;25.03;;;14.40;;
20814;SDS011;10568;48.176;16.316;2022-10-17T03:02:52;24.57;;;15.57;;
20814;SDS011;10568;48.176;16.316;2022-10-17T03:05:22;25.63;;;15.63;;
20814;SDS011;10568;48.176;16.316;2022-10-17T03:07:50;27.37;;;15.40;;
20814;SDS011;10568;48.176;16.316;2022-10-17T03:10:17;20.43;;;13.60;;
20814;SDS011;10568;48.176;16.316;2022-10-17T03:12:43;23.77;;;15.33;;
20814;SDS011;10568;48.176;16.316;2022-10-17T03:15:09;26.67;;;14.63;;
20814;SDS011;10568;48.176;16.316;2022-10-17T03:17:36;18.63;;;12.70;;
20814;SDS011;10568;48.176;16.316;2022-10-17T03:20:03;24.40;;;14.67;;
20814;SDS011;10568;48.176;16.316;2022-10-17T03:22:30;25.87;;;15.27;;
20814;SDS011;10568;48.176;16.316;2022-10-17T03:24:56;26.33;;;14.77;;
20814;SDS011;10568;48.176;16.316;2022-10-17T03:27:21;23.13;;;14.63;;
20814;SDS011;10568;48.176;16.316;2022-10-17T03:29:47;23.53;;;14.63;;
20814;SDS011;10568;48.176;16.316;2022-10-17T03:32:13;25.27;;;15.17;;
20814;SDS011;10568;48.176;16.316;2022-10-17T03:34:39;27.07;;;16.47;;
20814;SDS011;10568;48.176;16.316;2022-10-17T03:37:05;23.30;;;14.80;;
20814;SDS011;10568;48.176;16.316;2022-10-17T03:39:31;24.13;;;14.83;;
20814;SDS011;10568;48.176;16.316;2022-10-17T03:41:57;23.50;;;14.77;;
20814;SDS011;10568;48.176;16.316;2022-10-17T03:44:22;28.23;;;15.57;;
20814;SDS011;10568;48.176;16.316;2022-10-17T03:46:48;24.13;;;15.50;;
20814;SDS011;10568;48.176;16.316;2022-10-17T03:49:14;22.33;;;14.17;;
20814;SDS011;10568;48.176;16.316;2022-10-17T03:51:40;27.67;;;15.40;;
20814;SDS011;10568;48.176;16.316;2022-10-17T03:54:06;22.97;;;14.40;;
20814;SDS011;10568;48.176;16.316;2022-10-17T03:56:32;24.80;;;14.00;;
20814;SDS011;10568;48.176;16.316;2022-10-17T03:58:58;24.63;;;15.23;;
20814;SDS011;10568;48.176;16.316;2022-10-17T04:01:23;25.27;;;14.20;;
20814;SDS011;10568;48.176;16.316;2022-10-17T04:03:53;20.97;;;12.83;;
20814;SDS011;10568;48.176;16.316;2022-10-17T04:06:20;23.87;;;14.67;;
20814;SDS011;10568;48.176;16.316;2022-10-17T04:08:47;23.77;;;13.67;;
20814;SDS011;10568;48.176;16.316;2022-10-17T04:11:15;23.37;;;14.20;;
20814;SDS011;10568;48.176;16.316;2022-10-17T04:13:42;22.70;;;13.83;;
20814;SDS011;10568;48.176;16.316;2022-10-17T04:16:12;23.37;;;13.63;;
20814;SDS011;10568;48.176;16.316;2022-10-17T04:18:40;21.67;;;13.47;;
20814;SDS011;10568;48.176;16.316;2022-10-17T04:21:07;22.83;;;13.87;;
20814;SDS011;10568;48.176;16.316;2022-10-17T04:23:33;22.43;;;13.60;;
20814;SDS011;10568;48.176;16.316;2022-10-17T04:26:00;25.90;;;13.83;;
20814;SDS011;10568;48.176;16.316;2022-10-17T04:28:27;20.10;;;11.87;;
20814;SDS011;10568;48.176;16.316;2022-10-17T04:30:56;20.40;;;13.03;;
20814;SDS011;10568;48.176;16.316;2022-10-17T04:33:22;22.07;;;14.27;;
20814;SDS011;10568;48.176;16.316;2022-10-17T04:36:21;24.70;;;14.40;;
20814;SDS011;10568;48.176;16.316;2022-10-17T04:38:42;24.20;;;14.13;;
20814;SDS011;10568;48.176;16.316;2022-10-17T04:41:12;24.00;;;13.40;;
20814;SDS011;10568;48.176;16.316;2022-10-17T04:43:41;19.73;;;12.87;;
20814;SDS011;10568;48.176;16.316;2022-10-17T04:46:08;22.30;;;13.33;;
20814;SDS011;10568;48.176;16.316;2022-10-17T04:48:36;22.50;;;14.13;;
20814;SDS011;10568;48.176;16.316;2022-10-17T04:51:06;22.33;;;12.50;;
20814;SDS011;10568;48.176;16.316;2022-10-17T04:53:35;23.50;;;13.63;;
20814;SDS011;10568;48.176;16.316;2022-10-17T04:56:14;21.50;;;13.33;;
20814;SDS011;10568;48.176;16.316;2022-10-17T04:58:44;23.83;;;13.97;;
20814;SDS011;10568;48.176;16.316;2022-10-17T05:01:18;21.53;;;12.63;;
20814;SDS011;10568;48.176;16.316;2022-10-17T05:03:46;21.27;;;13.30;;
20814;SDS011;10568;48.176;16.316;2022-10-17T05:06:16;21.67;;;12.93;;
20814;SDS011;10568;48.176;16.316;2022-10-17T05:08:43;22.47;;;14.00;;
20814;SDS011;10568;48.176;16.316;2022-10-17T05:11:28;21.57;;;13.63;;
20814;SDS011;10568;48.176;16.316;2022-10-17T05:13:55;22.43;;;13.03;;
20814;SDS011;10568;48.176;16.316;2022-10-17T05:16:25;20.97;;;12.63;;
20814;SDS011;10568;48.176;16.316;2022-10-17T05:18:53;22.27;;;13.53;;
20814;SDS011;10568;48.176;16.316;2022-10-17T05:21:20;22.47;;;13.07;;
20814;SDS011;10568;48.176;16.316;2022-10-17T05:23:47;21.80;;;13.63;;
20814;SDS011;10568;48.176;16.316;2022-10-17T05:26:13;23.37;;;13.80;;
20814;SDS011;10568;48.176;16.316;2022-10-17T05:28:40;21.33;;;12.80;;
20814;SDS011;10568;48.176;16.316;2022-10-17T05:31:06;27.33;;;14.77;;
20814;SDS011;10568;48.176;16.316;2022-10-17T05:33:34;27.73;;;15.20;;
20814;SDS011;10568;48.176;16.316;2022-10-17T05:36:00;23.60;;;13.77;;
20814;SDS011;10568;48.176;16.316;2022-10-17T05:38:26;20.00;;;12.83;;
20814;SDS011;10568;48.176;16.316;2022-10-17T05:40:56;21.17;;;12.37;;
20814;SDS011;10568;48.176;16.316;2022-10-17T05:43:23;18.50;;;13.20;;
20814;SDS011;10568;48.176;16.316;2022-10-17T05:45:49;25.50;;;15.33;;
20814;SDS011;10568;48.176;16.316;2022-10-17T05:48:15;23.63;;;13.97;;
20814;SDS011;10568;48.176;16.316;2022-10-17T05:50:41;23.03;;;14.23;;
20814;SDS011;10568;48.176;16.316;2022-10-17T05:53:08;20.37;;;13.07;;
20814;SDS011;10568;48.176;16.316;2022-10-17T05:55:34;23.13;;;13.33;;
20814;SDS011;10568;48.176;16.316;2022-10-17T05:58:00;19.17;;;12.43;;
20814;SDS011;10568;48.176;16.316;2022-10-17T06:00:27;22.40;;;13.07;;
20814;SDS011;10568;48.176;16.316;2022-10-17T06:02:53;25.37;;;13.83;;
20814;SDS011;10568;48.176;16.316;2022-10-17T06:05:19;22.50;;;14.93;;
20814;SDS011;10568;48.176;16.316;2022-10-17T06:07:45;20.20;;;12.50;;
20814;SDS011;10568;48.176;16.316;2022-10-17T06:10:14;21.47;;;13.10;;
20814;SDS011;10568;48.176;16.316;2022-10-17T06:12:44;20.63;;;12.60;;
20814;SDS011;10568;48.176;16.316;2022-10-17T06:17:58;20.20;;;12.57;;
20814;SDS011;10568;48.176;16.316;2022-10-17T06:20:24;21.80;;;12.13;;
20814;SDS011;10568;48.176;16.316;2022-10-17T06:22:50;20.37;;;13.43;;
20814;SDS011;10568;48.176;16.316;2022-10-17T06:25:15;19.50;;;11.13;;
20814;SDS011;10568;48.176;16.316;2022-10-17T06:27:41;19.80;;;12.80;;
20814;SDS011;10568;48.176;16.316;2022-10-17T06:30:07;18.40;;;11.57;;
20814;SDS011;10568;48.176;16.316;2022-10-17T06:32:33;20.50;;;12.53;;
20814;SDS011;10568;48.176;16.316;2022-10-17T06:34:59;18.70;;;11.57;;
20814;SDS011;10568;48.176;16.316;2022-10-17T06:37:25;16.47;;;11.07;;
20814;SDS011;10568;48.176;16.316;2022-10-17T06:39:54;17.20;;;10.53;;
20814;SDS011;10568;48.176;16.316;2022-10-17T06:42:20;19.70;;;11.93;;
20814;SDS011;10568;48.176;16.316;2022-10-17T06:44:46;20.53;;;12.50;;
20814;SDS011;10568;48.176;16.316;2022-10-17T06:47:12;17.93;;;11.90;;
20814;SDS011;10568;48.176;16.316;2022-10-17T06:49:38;17.00;;;11.07;;
20814;SDS011;10568;48.176;16.316;2022-10-17T06:52:04;20.90;;;12.17;;
20814;SDS011;10568;48.176;16.316;2022-10-17T06:54:30;17.20;;;10.80;;
20814;SDS011;10568;48.176;16.316;2022-10-17T06:56:56;19.23;;;12.10;;
20814;SDS011;10568;48.176;16.316;2022-10-17T06:59:22;18.77;;;11.63;;
20814;SDS011;10568;48.176;16.316;2022-10-17T07:01:48;17.00;;;10.60;;
20814;SDS011;10568;48.176;16.316;2022-10-17T07:04:14;18.93;;;11.97;;
20814;SDS011;10568;48.176;16.316;2022-10-17T07:06:40;20.47;;;12.47;;
20814;SDS011;10568;48.176;16.316;2022-10-17T07:09:06;20.63;;;11.93;;
20814;SDS011;10568;48.176;16.316;2022-10-17T07:11:32;20.80;;;12.77;;
20814;SDS011;10568;48.176;16.316;2022-10-17T07:14:01;23.23;;;12.80;;
20814;SDS011;10568;48.176;16.316;2022-10-17T07:16:27;16.87;;;10.83;;
20814;SDS011;10568;48.176;16.316;2022-10-17T07:18:53;19.83;;;12.53;;
20814;SDS011;10568;48.176;16.316;2022-10-17T07:21:19;20.63;;;12.37;;
20814;SDS011;10568;48.176;16.316;2022-10-17T07:23:45;21.03;;;12.37;;
20814;SDS011;10568;48.176;16.316;2022-10-17T07:26:12;20.03;;;12.00;;
20814;SDS011;10568;48.176;16.316;2022-10-17T07:28:41;19.93;;;11.73;;
20814;SDS011;10568;48.176;16.316;2022-10-17T07:31:12;21.10;;;13.23;;
20814;SDS011;10568;48.176;16.316;2022-10-17T07:33:39;20.60;;;12.70;;
20814;SDS011;10568;48.176;16.316;2022-10-17T07:36:05;18.60;;;12.10;;
20814;SDS011;10568;48.176;16.316;2022-10-17T07:38:31;22.30;;;12.27;;
20814;SDS011;10568;48.176;16.316;2022-10-17T07:40:58;18.57;;;11.70;;
20814;SDS011;10568;48.176;16.316;2022-10-17T07:43:26;18.50;;;12.13;;
20814;SDS011;10568;48.176;16.316;2022-10-17T07:45:53;21.70;;;12.37;;
20814;SDS011;10568;48.176;16.316;2022-10-17T07:48:20;17.57;;;11.93;;
20814;SDS011;10568;48.176;16.316;2022-10-17T07:50:47;20.97;;;12.93;;
20814;SDS011;10568;48.176;16.316;2022-10-17T07:53:13;21.17;;;12.97;;
20814;SDS011;10568;48.176;16.316;2022-10-17T07:55:39;21.10;;;12.10;;
20814;SDS011;10568;48.176;16.316;2022-10-17T07:58:06;23.63;;;13.67;;
20814;SDS011;10568;48.176;16.316;2022-10-17T08:00:33;22.80;;;14.03;;
20814;SDS011;10568;48.176;16.316;2022-10-17T08:02:59;20.23;;;12.53;;
20814;SDS011;10568;48.176;16.316;2022-10-17T08:05:25;23.00;;;13.33;;
20814;SDS011;10568;48.176;16.316;2022-10-17T08:07:51;23.10;;;14.03;;
20814;SDS011;10568;48.176;16.316;2022-10-17T08:10:17;24.00;;;14.90;;
20814;SDS011;10568;48.176;16.316;2022-10-17T08:12:43;23.20;;;13.97;;
20814;SDS011;10568;48.176;16.316;2022-10-17T08:15:09;23.70;;;14.20;;
20814;SDS011;10568;48.176;16.316;2022-10-17T08:17:36;22.23;;;13.90;;
20814;SDS011;10568;48.176;16.316;2022-10-17T08:20:03;21.37;;;13.57;;
20814;SDS011;10568;48.176;16.316;2022-10-17T08:22:30;22.23;;;14.13;;
20814;SDS011;10568;48.176;16.316;2022-10-17T08:24:56;22.77;;;14.40;;
20814;SDS011;10568;48.176;16.316;2022-10-17T08:27:22;22.63;;;13.87;;
20814;SDS011;10568;48.176;16.316;2022-10-17T08:29:50;22.17;;;14.33;;
20814;SDS011;10568;48.176;16.316;2022-10-17T08:32:23;25.83;;;14.80;;
20814;SDS011;10568;48.176;16.316;2022-10-17T08:34:51;22.50;;;14.40;;
20814;SDS011;10568;48.176;16.316;2022-10-17T08:37:17;24.37;;;14.57;;
20814;SDS011;10568;48.176;16.316;2022-10-17T08:39:43;24.53;;;14.77;;
20814;SDS011;10568;48.176;16.316;2022-10-17T08:47:43;24.67;;;15.03;;
20814;SDS011;10568;48.176;16.316;2022-10-17T08:50:13;23.47;;;16.07;;
20814;SDS011;10568;48.176;16.316;2022-10-17T08:53:02;24.30;;;15.53;;
20814;SDS011;10568;48.176;16.316;2022-10-17T08:55:51;23.90;;;14.73;;
20814;SDS011;10568;48.176;16.316;2022-10-17T09:03:37;25.87;;;15.20;;
20814;SDS011;10568;48.176;16.316;2022-10-17T09:06:24;22.80;;;14.53;;
20814;SDS011;10568;48.176;16.316;2022-10-17T09:18:01;24.63;;;15.60;;
20814;SDS011;10568;48.176;16.316;2022-10-17T09:20:38;23.30;;;14.70;;
20814;SDS011;10568;48.176;16.316;2022-10-17T09:23:13;27.60;;;15.90;;
20814;SDS011;10568;48.176;16.316;2022-10-17T09:25:44;22.90;;;15.90;;
20814;SDS011;10568;48.176;16.316;2022-10-17T09:30:43;23.63;;;15.53;;
20814;SDS011;10568;48.176;16.316;2022-10-17T09:33:38;21.67;;;14.97;;
20814;SDS011;10568;48.176;16.316;2022-10-17T09:36:10;24.60;;;15.03;;
20814;SDS011;10568;48.176;16.316;2022-10-17T09:38:49;24.07;;;14.77;;
20814;SDS011;10568;48.176;16.316;2022-10-17T09:44:39;22.60;;;14.57;;
20814;SDS011;10568;48.176;16.316;2022-10-17T09:49:49;21.83;;;14.97;;
20814;SDS011;10568;48.176;16.316;2022-10-17T09:54:47;23.47;;;15.73;;
20814;SDS011;10568;48.176;16.316;2022-10-17T09:57:14;24.57;;;15.43;;
20814;SDS011;10568;48.176;16.316;2022-10-17T09:59:42;24.97;;;15.83;;
20814;SDS011;10568;48.176;16.316;2022-10-17T10:05:22;24.87;;;15.87;;
20814;SDS011;10568;48.176;16.316;2022-10-17T10:07:24;24.23;;;15.63;;
20814;SDS011;10568;48.176;16.316;2022-10-17T10:09:52;23.50;;;15.97;;
20814;SDS011;10568;48.176;16.316;2022-10-17T10:12:23;23.73;;;15.47;;
20814;SDS011;10568;48.176;16.316;2022-10-17T10:14:50;24.17;;;15.27;;
20814;SDS011;10568;48.176;16.316;2022-10-17T10:19:57;22.17;;;15.80;;
20814;SDS011;10568;48.176;16.316;2022-10-17T10:22:24;24.63;;;15.97;;
20814;SDS011;10568;48.176;16.316;2022-10-17T10:25:06;22.13;;;15.17;;
20814;SDS011;10568;48.176;16.316;2022-10-17T10:27:34;24.23;;;14.87;;
20814;SDS011;10568;48.176;16.316;2022-10-17T10:30:01;20.33;;;14.48;;
20814;SDS011;10568;48.176;16.316;2022-10-17T10:32:30;20.60;;;14.15;;
20814;SDS011;10568;48.176;16.316;2022-10-17T10:37:43;19.45;;;14.27;;
20814;SDS011;10568;48.176;16.316;2022-10-17T10:43:01;21.10;;;14.63;;
20814;SDS011;10568;48.176;16.316;2022-10-17T10:45:48;18.05;;;14.18;;
20814;SDS011;10568;48.176;16.316;2022-10-17T10:50:49;20.20;;;13.20;;
20814;SDS011;10568;48.176;16.316;2022-10-17T10:56:09;18.60;;;12.55;;
20814;SDS011;10568;48.176;16.316;2022-10-17T10:58:46;21.27;;;13.18;;
20814;SDS011;10568;48.176;16.316;2022-10-17T11:01:27;17.70;;;12.52;;
20814;SDS011;10568;48.176;16.316;2022-10-17T11:04:16;18.60;;;12.65;;
20814;SDS011;10568;48.176;16.316;2022-10-17T11:06:44;19.30;;;13.23;;
20814;SDS011;10568;48.176;16.316;2022-10-17T11:09:22;16.65;;;12.40;;
20814;SDS011;10568;48.176;16.316;2022-10-17T11:11:57;18.48;;;13.52;;
20814;SDS011;10568;48.176;16.316;2022-10-17T11:20:37;16.80;;;12.20;;
20814;SDS011;10568;48.176;16.316;2022-10-17T11:25:56;15.68;;;12.45;;
20814;SDS011;10568;48.176;16.316;2022-10-17T11:28:24;17.88;;;11.82;;
20814;SDS011;10568;48.176;16.316;2022-10-17T11:30:55;17.98;;;11.75;;
20814;SDS011;10568;48.176;16.316;2022-10-17T11:33:28;17.80;;;11.55;;
20814;SDS011;10568;48.176;16.316;2022-10-17T11:36:10;17.88;;;12.43;;
20814;SDS011;10568;48.176;16.316;2022-10-17T11:38:48;16.33;;;11.52;;
20814;SDS011;10568;48.176;16.316;2022-10-17T11:41:32;17.17;;;12.68;;
20814;SDS011;10568;48.176;16.316;2022-10-17T11:46:52;17.38;;;12.38;;
20814;SDS011;10568;48.176;16.316;2022-10-17T11:49:23;16.15;;;12.63;;
20814;SDS011;10568;48.176;16.316;2022-10-17T11:51:59;15.75;;;11.95;;
20814;SDS011;10568;48.176;16.316;2022-10-17T11:54:56;16.58;;;11.57;;
20814;SDS011;10568;48.176;16.316;2022-10-17T11:57:34;17.23;;;11.65;;
20814;SDS011;10568;48.176;16.316;2022-10-17T12:13:45;15.65;;;10.93;;
20814;SDS011;10568;48.176;16.316;2022-10-17T12:18:44;13.63;;;10.65;;
20814;SDS011;10568;48.176;16.316;2022-10-17T12:21:16;14.15;;;11.35;;
20814;SDS011;10568;48.176;16.316;2022-10-17T12:23:49;15.85;;;11.48;;
20814;SDS011;10568;48.176;16.316;2022-10-17T12:26:24;13.88;;;10.80;;
20814;SDS011;10568;48.176;16.316;2022-10-17T12:28:51;13.65;;;10.52;;
20814;SDS011;10568;48.176;16.316;2022-10-17T12:33:52;15.38;;;11.02;;
20814;SDS011;10568;48.176;16.316;2022-10-17T12:55:17;16.98;;;10.98;;
20814;SDS011;10568;48.176;16.316;2022-10-17T12:57:52;16.35;;;10.75;;
20814;SDS011;10568;48.176;16.316;2022-10-17T13:03:29;15.77;;;10.75;;
20814;SDS011;10568;48.176;16.316;2022-10-17T13:06:06;16.00;;;10.60;;
20814;SDS011;10568;48.176;16.316;2022-10-17T13:08:44;14.18;;;10.30;;
20814;SDS011;10568;48.176;16.316;2022-10-17T13:11:13;15.05;;;9.65;;
20814;SDS011;10568;48.176;16.316;2022-10-17T13:13:46;14.95;;;10.00;;
20814;SDS011;10568;48.176;16.316;2022-10-17T13:16:29;15.48;;;9.75;;
20814;SDS011;10568;48.176;16.316;2022-10-17T13:19:11;11.73;;;8.65;;
20814;SDS011;10568;48.176;16.316;2022-10-17T13:22:16;14.45;;;9.57;;
20814;SDS011;10568;48.176;16.316;2022-10-17T13:24:38;13.75;;;9.45;;
20814;SDS011;10568;48.176;16.316;2022-10-17T13:27:18;12.55;;;9.02;;
20814;SDS011;10568;48.176;16.316;2022-10-17T13:29:54;15.85;;;9.60;;
20814;SDS011;10568;48.176;16.316;2022-10-17T13:32:23;12.68;;;8.80;;
20814;SDS011;10568;48.176;16.316;2022-10-17T13:37:40;15.57;;;9.32;;
20814;SDS011;10568;48.176;16.316;2022-10-17T13:40:42;13.90;;;9.18;;
20814;SDS011;10568;48.176;16.316;2022-10-17T13:43:15;13.07;;;8.65;;
20814;SDS011;10568;48.176;16.316;2022-10-17T13:45:54;11.98;;;8.43;;
20814;SDS011;10568;48.176;16.316;2022-10-17T13:48:25;12.88;;;9.27;;
20814;SDS011;10568;48.176;16.316;2022-10-17T13:50:53;12.38;;;8.80;;
20814;SDS011;10568;48.176;16.316;2022-10-17T13:53:26;11.88;;;8.27;;
20814;SDS011;10568;48.176;16.316;2022-10-17T13:58:41;12.85;;;8.70;;
20814;SDS011;10568;48.176;16.316;2022-10-17T14:01:08;11.02;;;7.95;;
20814;SDS011;10568;48.176;16.316;2022-10-17T14:03:36;12.00;;;8.43;;
20814;SDS011;10568;48.176;16.316;2022-10-17T14:06:23;14.23;;;8.50;;
20814;SDS011;10568;48.176;16.316;2022-10-17T14:09:00;13.05;;;8.85;;
20814;SDS011;10568;48.176;16.316;2022-10-17T14:11:36;10.90;;;8.38;;
20814;SDS011;10568;48.176;16.316;2022-10-17T14:14:03;11.55;;;7.95;;
20814;SDS011;10568;48.176;16.316;2022-10-17T14:16:33;11.60;;;8.18;;
20814;SDS011;10568;48.176;16.316;2022-10-17T14:19:28;11.43;;;8.48;;
20814;SDS011;10568;48.176;16.316;2022-10-17T14:24:50;11.75;;;7.93;;
20814;SDS011;10568;48.176;16.316;2022-10-17T14:29:59;11.18;;;8.32;;
20814;SDS011;10568;48.176;16.316;2022-10-17T14:32:32;13.48;;;8.73;;
20814;SDS011;10568;48.176;16.316;2022-10-17T14:35:00;10.35;;;7.90;;
20814;SDS011;10568;48.176;16.316;2022-10-17T14:37:35;11.48;;;7.53;;
20814;SDS011;10568;48.176;16.316;2022-10-17T14:40:46;15.18;;;7.72;;
20814;SDS011;10568;48.176;16.316;2022-10-17T14:43:01;14.80;;;8.48;;
20814;SDS011;10568;48.176;16.316;2022-10-17T14:45:33;11.07;;;7.97;;
20814;SDS011;10568;48.176;16.316;2022-10-17T14:48:02;11.10;;;8.32;;
20814;SDS011;10568;48.176;16.316;2022-10-17T14:50:35;13.52;;;8.10;;
20814;SDS011;10568;48.176;16.316;2022-10-17T14:53:05;10.98;;;8.15;;
20814;SDS011;10568;48.176;16.316;2022-10-17T14:56:17;9.77;;;8.02;;
20814;SDS011;10568;48.176;16.316;2022-10-17T14:58:46;10.55;;;7.65;;
20814;SDS011;10568;48.176;16.316;2022-10-17T15:01:12;11.82;;;8.32;;
20814;SDS011;10568;48.176;16.316;2022-10-17T15:12:45;11.10;;;7.50;;
20814;SDS011;10568;48.176;16.316;2022-10-17T15:15:10;9.57;;;7.63;;
20814;SDS011;10568;48.176;16.316;2022-10-17T15:17:36;9.88;;;7.30;;
20814;SDS011;10568;48.176;16.316;2022-10-17T15:20:02;12.02;;;7.47;;
20814;SDS011;10568;48.176;16.316;2022-10-17T15:22:28;9.77;;;7.55;;
20814;SDS011;10568;48.176;16.316;2022-10-17T15:24:55;11.88;;;7.70;;
20814;SDS011;10568;48.176;16.316;2022-10-17T15:27:21;12.02;;;7.80;;
20814;SDS011;10568;48.176;16.316;2022-10-17T15:29:49;10.75;;;7.60;;
20814;SDS011;10568;48.176;16.316;2022-10-17T15:32:17;11.37;;;8.17;;
20814;SDS011;10568;48.176;16.316;2022-10-17T15:34:43;11.95;;;8.15;;
20814;SDS011;10568;48.176;16.316;2022-10-17T15:37:22;12.00;;;8.00;;
20814;SDS011;10568;48.176;16.316;2022-10-17T15:39:51;10.37;;;7.43;;
20814;SDS011;10568;48.176;16.316;2022-10-17T15:42:18;11.57;;;8.38;;
20814;SDS011;10568;48.176;16.316;2022-10-17T15:44:46;8.98;;;7.43;;
20814;SDS011;10568;48.176;16.316;2022-10-17T15:47:32;10.70;;;7.10;;
20814;SDS011;10568;48.176;16.316;2022-10-17T15:49:58;10.53;;;7.03;;
20814;SDS011;10568;48.176;16.316;2022-10-17T15:52:24;9.63;;;7.60;;
20814;SDS011;10568;48.176;16.316;2022-10-17T15:54:51;8.50;;;6.80;;
20814;SDS011;10568;48.176;16.316;2022-10-17T15:57:22;9.87;;;7.43;;
20814;SDS011;10568;48.176;16.316;2022-10-17T15:59:51;8.77;;;6.60;;
20814;SDS011;10568;48.176;16.316;2022-10-17T16:02:18;8.50;;;6.77;;
20814;SDS011;10568;48.176;16.316;2022-10-17T16:04:46;9.47;;;6.60;;
20814;SDS011;10568;48.176;16.316;2022-10-17T16:07:12;10.57;;;6.93;;
20814;SDS011;10568;48.176;16.316;2022-10-17T16:09:38;8.80;;;6.63;;
20814;SDS011;10568;48.176;16.316;2022-10-17T16:12:05;12.50;;;6.57;;
20814;SDS011;10568;48.176;16.316;2022-10-17T16:14:35;9.57;;;6.93;;
20814;SDS011;10568;48.176;16.316;2022-10-17T16:17:01;9.07;;;6.30;;
20814;SDS011;10568;48.176;16.316;2022-10-17T16:19:27;7.77;;;6.23;;
20814;SDS011;10568;48.176;16.316;2022-10-17T16:21:54;9.57;;;6.10;;
20814;SDS011;10568;48.176;16.316;2022-10-17T16:24:21;9.03;;;5.83;;
20814;SDS011;10568;48.176;16.316;2022-10-17T16:26:47;10.17;;;6.10;;
20814;SDS011;10568;48.176;16.316;2022-10-17T16:29:13;10.17;;;5.83;;
20814;SDS011;10568;48.176;16.316;2022-10-17T16:31:40;8.73;;;6.20;;
20814;SDS011;10568;48.176;16.316;2022-10-17T16:34:09;8.17;;;6.10;;
20814;SDS011;10568;48.176;16.316;2022-10-17T16:36:39;8.43;;;5.90;;
20814;SDS011;10568;48.176;16.316;2022-10-17T16:39:06;8.50;;;5.57;;
20814;SDS011;10568;48.176;16.316;2022-10-17T16:41:32;7.80;;;5.50;;
20814;SDS011;10568;48.176;16.316;2022-10-17T16:44:03;6.43;;;5.33;;
20814;SDS011;10568;48.176;16.316;2022-10-17T16:46:30;7.93;;;5.73;;
20814;SDS011;10568;48.176;16.316;2022-10-17T16:48:57;7.50;;;5.00;;
20814;SDS011;10568;48.176;16.316;2022-10-17T16:51:23;7.67;;;4.83;;
20814;SDS011;10568;48.176;16.316;2022-10-17T16:53:50;7.63;;;5.70;;
20814;SDS011;10568;48.176;16.316;2022-10-17T16:56:22;7.40;;;5.00;;
20814;SDS011;10568;48.176;16.316;2022-10-17T16:58:49;6.73;;;4.60;;
20814;SDS011;10568;48.176;16.316;2022-10-17T17:01:17;7.30;;;5.10;;
20814;SDS011;10568;48.176;16.316;2022-10-17T17:03:45;8.53;;;5.20;;
20814;SDS011;10568;48.176;16.316;2022-10-17T17:06:15;7.93;;;5.23;;
20814;SDS011;10568;48.176;16.316;2022-10-17T17:08:44;7.73;;;5.20;;
20814;SDS011;10568;48.176;16.316;2022-10-17T17:11:12;6.40;;;4.90;;
20814;SDS011;10568;48.176;16.316;2022-10-17T17:13:39;6.63;;;4.50;;